sensor_id;sensor_type;location;lat;lon;timestamp;P1;durP1;ratioP1;P2;durP2;ratioP2
26253;SDS011;53339;51.378;0.094;2023-11-21T00:00:27;9.82;;;4.82;;
26253;SDS011;53339;51.378;0.094;2023-11-21T00:02:54;7.43;;;3.35;;
26253;SDS011;53339;51.378;0.094;2023-11-21T00:05:23;7.70;;;3.45;;
26253;SDS011;53339;51.378;0.094;2023-11-21T00:07:50;6.70;;;3.83;;
26253;SDS011;53339;51.378;0.094;2023-11-21T00:10:18;5.93;;;3.60;;
26253;SDS011;53339;51.378;0.094;2023-11-21T00:12:46;9.60;;;4.65;;
26253;SDS011;53339;51.378;0.094;2023-11-21T00:15:15;8.88;;;4.03;;
26253;SDS011;53339;51.378;0.094;2023-11-21T00:17:44;6.20;;;2.67;;
26253;SDS011;53339;51.378;0.094;2023-11-21T00:20:12;9.15;;;3.97;;
26253;SDS011;53339;51.378;0.094;2023-11-21T00:22:42;7.32;;;4.55;;
26253;SDS011;53339;51.378;0.094;2023-11-21T00:25:10;6.05;;;3.05;;
26253;SDS011;53339;51.378;0.094;2023-11-21T00:27:40;6.88;;;4.15;;
26253;SDS011;53339;51.378;0.094;2023-11-21T00:30:09;6.55;;;3.47;;
26253;SDS011;53339;51.378;0.094;2023-11-21T00:32:37;7.20;;;3.85;;
26253;SDS011;53339;51.378;0.094;2023-11-21T00:35:05;6.18;;;3.70;;
26253;SDS011;53339;51.378;0.094;2023-11-21T00:37:33;8.30;;;3.45;;
26253;SDS011;53339;51.378;0.094;2023-11-21T00:40:02;7.63;;;3.28;;
26253;SDS011;53339;51.378;0.094;2023-11-21T00:42:34;7.25;;;3.97;;
26253;SDS011;53339;51.378;0.094;2023-11-21T00:45:02;6.85;;;3.50;;
26253;SDS011;53339;51.378;0.094;2023-11-21T00:47:31;8.55;;;3.13;;
26253;SDS011;53339;51.378;0.094;2023-11-21T00:49:59;8.77;;;3.85;;
26253;SDS011;53339;51.378;0.094;2023-11-21T00:52:27;10.63;;;6.97;;
26253;SDS011;53339;51.378;0.094;2023-11-21T00:54:54;8.27;;;4.13;;
26253;SDS011;53339;51.378;0.094;2023-11-21T00:57:22;8.30;;;3.45;;
26253;SDS011;53339;51.378;0.094;2023-11-21T00:59:50;8.75;;;3.67;;
26253;SDS011;53339;51.378;0.094;2023-11-21T01:02:21;7.88;;;3.83;;
26253;SDS011;53339;51.378;0.094;2023-11-21T01:04:49;8.25;;;4.15;;
26253;SDS011;53339;51.378;0.094;2023-11-21T01:07:16;7.47;;;3.47;;
26253;SDS011;53339;51.378;0.094;2023-11-21T01:09:47;8.98;;;3.72;;
26253;SDS011;53339;51.378;0.094;2023-11-21T01:12:15;8.15;;;4.07;;
26253;SDS011;53339;51.378;0.094;2023-11-21T01:14:46;10.18;;;4.10;;
26253;SDS011;53339;51.378;0.094;2023-11-21T01:17:14;8.55;;;4.13;;
26253;SDS011;53339;51.378;0.094;2023-11-21T01:19:42;9.25;;;4.38;;
26253;SDS011;53339;51.378;0.094;2023-11-21T01:22:10;11.45;;;3.90;;
26253;SDS011;53339;51.378;0.094;2023-11-21T01:24:39;11.52;;;4.80;;
26253;SDS011;53339;51.378;0.094;2023-11-21T01:27:07;9.98;;;4.65;;
26253;SDS011;53339;51.378;0.094;2023-11-21T01:29:36;7.50;;;3.30;;
26253;SDS011;53339;51.378;0.094;2023-11-21T01:32:04;9.95;;;5.28;;
26253;SDS011;53339;51.378;0.094;2023-11-21T01:34:35;9.38;;;4.40;;
26253;SDS011;53339;51.378;0.094;2023-11-21T01:37:03;10.70;;;4.47;;
26253;SDS011;53339;51.378;0.094;2023-11-21T01:39:32;9.25;;;4.63;;
26253;SDS011;53339;51.378;0.094;2023-11-21T01:42:00;8.55;;;4.38;;
26253;SDS011;53339;51.378;0.094;2023-11-21T01:44:28;7.50;;;4.22;;
26253;SDS011;53339;51.378;0.094;2023-11-21T01:46:57;9.25;;;4.00;;
26253;SDS011;53339;51.378;0.094;2023-11-21T01:49:25;9.43;;;4.78;;
26253;SDS011;53339;51.378;0.094;2023-11-21T01:51:52;10.05;;;4.25;;
26253;SDS011;53339;51.378;0.094;2023-11-21T01:54:21;9.25;;;4.50;;
26253;SDS011;53339;51.378;0.094;2023-11-21T01:56:49;6.80;;;4.03;;
26253;SDS011;53339;51.378;0.094;2023-11-21T01:59:21;7.47;;;3.25;;
26253;SDS011;53339;51.378;0.094;2023-11-21T02:01:49;7.28;;;4.47;;
26253;SDS011;53339;51.378;0.094;2023-11-21T02:04:18;7.18;;;3.15;;
26253;SDS011;53339;51.378;0.094;2023-11-21T02:06:48;7.55;;;4.03;;
26253;SDS011;53339;51.378;0.094;2023-11-21T02:09:27;6.20;;;3.35;;
26253;SDS011;53339;51.378;0.094;2023-11-21T02:11:57;7.22;;;3.78;;
26253;SDS011;53339;51.378;0.094;2023-11-21T02:14:26;6.03;;;3.15;;
26253;SDS011;53339;51.378;0.094;2023-11-21T02:16:55;6.53;;;3.42;;
26253;SDS011;53339;51.378;0.094;2023-11-21T02:19:24;5.88;;;2.85;;
26253;SDS011;53339;51.378;0.094;2023-11-21T02:21:57;4.00;;;2.15;;
26253;SDS011;53339;51.378;0.094;2023-11-21T02:24:30;4.78;;;3.05;;
26253;SDS011;53339;51.378;0.094;2023-11-21T02:26:58;4.35;;;2.65;;
26253;SDS011;53339;51.378;0.094;2023-11-21T02:29:27;2.92;;;1.65;;
26253;SDS011;53339;51.378;0.094;2023-11-21T02:31:55;4.30;;;2.40;;
26253;SDS011;53339;51.378;0.094;2023-11-21T02:34:23;3.00;;;1.48;;
26253;SDS011;53339;51.378;0.094;2023-11-21T02:36:54;3.67;;;2.85;;
26253;SDS011;53339;51.378;0.094;2023-11-21T02:39:22;4.20;;;2.10;;
26253;SDS011;53339;51.378;0.094;2023-11-21T02:41:51;4.05;;;2.15;;
26253;SDS011;53339;51.378;0.094;2023-11-21T02:44:19;4.25;;;2.30;;
26253;SDS011;53339;51.378;0.094;2023-11-21T02:46:47;2.22;;;1.55;;
26253;SDS011;53339;51.378;0.094;2023-11-21T02:49:15;3.22;;;1.98;;
26253;SDS011;53339;51.378;0.094;2023-11-21T02:51:42;4.90;;;2.50;;
26253;SDS011;53339;51.378;0.094;2023-11-21T02:54:11;3.42;;;2.17;;
26253;SDS011;53339;51.378;0.094;2023-11-21T02:56:39;4.07;;;2.80;;
26253;SDS011;53339;51.378;0.094;2023-11-21T02:59:07;3.25;;;1.60;;
26253;SDS011;53339;51.378;0.094;2023-11-21T03:01:34;4.25;;;2.83;;
26253;SDS011;53339;51.378;0.094;2023-11-21T03:04:02;4.65;;;3.30;;
26253;SDS011;53339;51.378;0.094;2023-11-21T03:06:30;3.92;;;2.65;;
26253;SDS011;53339;51.378;0.094;2023-11-21T03:08:58;5.07;;;3.17;;
26253;SDS011;53339;51.378;0.094;2023-11-21T03:11:26;3.90;;;2.38;;
26253;SDS011;53339;51.378;0.094;2023-11-21T03:13:54;4.82;;;2.83;;
26253;SDS011;53339;51.378;0.094;2023-11-21T03:16:21;6.03;;;4.47;;
26253;SDS011;53339;51.378;0.094;2023-11-21T03:18:49;7.60;;;3.08;;
26253;SDS011;53339;51.378;0.094;2023-11-21T03:21:18;7.97;;;2.83;;
26253;SDS011;53339;51.378;0.094;2023-11-21T03:23:46;6.32;;;3.20;;
26253;SDS011;53339;51.378;0.094;2023-11-21T03:26:14;7.25;;;3.25;;
26253;SDS011;53339;51.378;0.094;2023-11-21T03:28:41;6.93;;;3.50;;
26253;SDS011;53339;51.378;0.094;2023-11-21T03:31:10;6.93;;;3.88;;
26253;SDS011;53339;51.378;0.094;2023-11-21T03:33:38;6.50;;;3.90;;
26253;SDS011;53339;51.378;0.094;2023-11-21T03:36:06;7.45;;;3.65;;
26253;SDS011;53339;51.378;0.094;2023-11-21T03:38:38;6.95;;;4.05;;
26253;SDS011;53339;51.378;0.094;2023-11-21T03:41:06;7.82;;;4.10;;
26253;SDS011;53339;51.378;0.094;2023-11-21T03:43:34;7.40;;;4.30;;
26253;SDS011;53339;51.378;0.094;2023-11-21T03:46:03;7.50;;;3.65;;
26253;SDS011;53339;51.378;0.094;2023-11-21T03:48:31;6.60;;;3.47;;
26253;SDS011;53339;51.378;0.094;2023-11-21T03:51:00;6.78;;;3.25;;
26253;SDS011;53339;51.378;0.094;2023-11-21T03:53:28;8.80;;;3.13;;
26253;SDS011;53339;51.378;0.094;2023-11-21T03:55:57;6.85;;;3.53;;
26253;SDS011;53339;51.378;0.094;2023-11-21T03:58:25;7.00;;;3.58;;
26253;SDS011;53339;51.378;0.094;2023-11-21T04:00:53;6.65;;;3.10;;
26253;SDS011;53339;51.378;0.094;2023-11-21T04:03:21;6.22;;;3.10;;
26253;SDS011;53339;51.378;0.094;2023-11-21T04:05:49;5.35;;;2.53;;
26253;SDS011;53339;51.378;0.094;2023-11-21T04:08:16;6.60;;;3.22;;
26253;SDS011;53339;51.378;0.094;2023-11-21T04:10:45;6.05;;;3.00;;
26253;SDS011;53339;51.378;0.094;2023-11-21T04:13:12;6.43;;;3.10;;
26253;SDS011;53339;51.378;0.094;2023-11-21T04:15:40;6.28;;;2.22;;
26253;SDS011;53339;51.378;0.094;2023-11-21T04:18:08;4.97;;;3.15;;
26253;SDS011;53339;51.378;0.094;2023-11-21T04:20:36;5.30;;;2.75;;
26253;SDS011;53339;51.378;0.094;2023-11-21T04:23:04;5.53;;;2.58;;
26253;SDS011;53339;51.378;0.094;2023-11-21T04:25:32;4.82;;;2.70;;
26253;SDS011;53339;51.378;0.094;2023-11-21T04:28:00;5.75;;;3.05;;
26253;SDS011;53339;51.378;0.094;2023-11-21T04:30:27;5.45;;;2.47;;
26253;SDS011;53339;51.378;0.094;2023-11-21T04:32:55;4.45;;;2.97;;
26253;SDS011;53339;51.378;0.094;2023-11-21T04:35:24;4.68;;;3.17;;
26253;SDS011;53339;51.378;0.094;2023-11-21T04:37:51;5.50;;;2.47;;
26253;SDS011;53339;51.378;0.094;2023-11-21T04:40:20;7.07;;;2.63;;
26253;SDS011;53339;51.378;0.094;2023-11-21T04:42:48;4.75;;;2.85;;
26253;SDS011;53339;51.378;0.094;2023-11-21T04:45:16;4.95;;;2.50;;
26253;SDS011;53339;51.378;0.094;2023-11-21T04:47:45;4.45;;;2.53;;
26253;SDS011;53339;51.378;0.094;2023-11-21T04:50:13;4.20;;;2.00;;
26253;SDS011;53339;51.378;0.094;2023-11-21T04:52:41;4.45;;;1.98;;
26253;SDS011;53339;51.378;0.094;2023-11-21T04:55:09;3.90;;;2.53;;
26253;SDS011;53339;51.378;0.094;2023-11-21T04:57:38;3.38;;;2.33;;
26253;SDS011;53339;51.378;0.094;2023-11-21T05:00:09;4.20;;;2.30;;
26253;SDS011;53339;51.378;0.094;2023-11-21T05:02:40;4.35;;;2.80;;
26253;SDS011;53339;51.378;0.094;2023-11-21T05:05:09;3.58;;;1.75;;
26253;SDS011;53339;51.378;0.094;2023-11-21T05:07:38;4.13;;;3.72;;
26253;SDS011;53339;51.378;0.094;2023-11-21T05:10:07;3.97;;;2.47;;
26253;SDS011;53339;51.378;0.094;2023-11-21T05:12:40;5.38;;;2.30;;
26253;SDS011;53339;51.378;0.094;2023-11-21T05:15:09;3.80;;;2.45;;
26253;SDS011;53339;51.378;0.094;2023-11-21T05:17:40;3.63;;;2.20;;
26253;SDS011;53339;51.378;0.094;2023-11-21T05:20:13;4.60;;;3.25;;
26253;SDS011;53339;51.378;0.094;2023-11-21T05:22:45;5.70;;;2.45;;
26253;SDS011;53339;51.378;0.094;2023-11-21T05:25:13;3.90;;;2.40;;
26253;SDS011;53339;51.378;0.094;2023-11-21T05:27:41;3.65;;;2.33;;
26253;SDS011;53339;51.378;0.094;2023-11-21T05:30:09;4.65;;;2.20;;
26253;SDS011;53339;51.378;0.094;2023-11-21T05:32:40;3.30;;;1.50;;
26253;SDS011;53339;51.378;0.094;2023-11-21T05:35:11;3.30;;;2.50;;
26253;SDS011;53339;51.378;0.094;2023-11-21T05:37:44;3.33;;;2.17;;
26253;SDS011;53339;51.378;0.094;2023-11-21T05:40:15;4.53;;;1.80;;
26253;SDS011;53339;51.378;0.094;2023-11-21T05:42:43;3.30;;;2.08;;
26253;SDS011;53339;51.378;0.094;2023-11-21T05:45:11;5.15;;;1.95;;
26253;SDS011;53339;51.378;0.094;2023-11-21T05:47:41;3.03;;;1.85;;
26253;SDS011;53339;51.378;0.094;2023-11-21T05:50:10;5.10;;;2.08;;
26253;SDS011;53339;51.378;0.094;2023-11-21T05:52:43;4.88;;;2.20;;
26253;SDS011;53339;51.378;0.094;2023-11-21T05:55:12;3.85;;;2.00;;
26253;SDS011;53339;51.378;0.094;2023-11-21T05:57:41;4.30;;;2.53;;
26253;SDS011;53339;51.378;0.094;2023-11-21T06:00:10;5.70;;;1.92;;
26253;SDS011;53339;51.378;0.094;2023-11-21T06:03:00;3.65;;;2.17;;
26253;SDS011;53339;51.378;0.094;2023-11-21T06:05:27;7.40;;;2.85;;
26253;SDS011;53339;51.378;0.094;2023-11-21T06:07:56;4.05;;;2.20;;
26253;SDS011;53339;51.378;0.094;2023-11-21T06:10:28;4.43;;;1.92;;
26253;SDS011;53339;51.378;0.094;2023-11-21T06:12:56;5.05;;;2.25;;
26253;SDS011;53339;51.378;0.094;2023-11-21T06:15:27;6.78;;;2.58;;
26253;SDS011;53339;51.378;0.094;2023-11-21T06:17:56;6.20;;;2.88;;
26253;SDS011;53339;51.378;0.094;2023-11-21T06:20:24;4.85;;;2.72;;
26253;SDS011;53339;51.378;0.094;2023-11-21T06:22:52;4.70;;;2.53;;
26253;SDS011;53339;51.378;0.094;2023-11-21T06:25:21;4.15;;;1.63;;
26253;SDS011;53339;51.378;0.094;2023-11-21T06:27:49;6.93;;;2.38;;
26253;SDS011;53339;51.378;0.094;2023-11-21T06:30:19;6.53;;;2.72;;
26253;SDS011;53339;51.378;0.094;2023-11-21T06:32:48;4.63;;;2.70;;
26253;SDS011;53339;51.378;0.094;2023-11-21T06:35:17;5.13;;;2.40;;
26253;SDS011;53339;51.378;0.094;2023-11-21T06:37:45;4.53;;;2.55;;
26253;SDS011;53339;51.378;0.094;2023-11-21T06:40:15;4.82;;;2.70;;
26253;SDS011;53339;51.378;0.094;2023-11-21T06:42:45;3.90;;;2.00;;
26253;SDS011;53339;51.378;0.094;2023-11-21T06:45:15;5.28;;;2.33;;
26253;SDS011;53339;51.378;0.094;2023-11-21T06:47:45;3.58;;;1.85;;
26253;SDS011;53339;51.378;0.094;2023-11-21T06:50:13;4.68;;;2.53;;
26253;SDS011;53339;51.378;0.094;2023-11-21T06:52:41;6.07;;;2.78;;
26253;SDS011;53339;51.378;0.094;2023-11-21T06:55:10;4.32;;;1.98;;
26253;SDS011;53339;51.378;0.094;2023-11-21T06:57:38;4.68;;;3.00;;
26253;SDS011;53339;51.378;0.094;2023-11-21T07:00:06;2.85;;;1.50;;
26253;SDS011;53339;51.378;0.094;2023-11-21T07:02:36;5.22;;;2.50;;
26253;SDS011;53339;51.378;0.094;2023-11-21T07:05:05;5.72;;;2.65;;
26253;SDS011;53339;51.378;0.094;2023-11-21T07:07:33;5.13;;;1.52;;
26253;SDS011;53339;51.378;0.094;2023-11-21T07:10:03;3.90;;;1.70;;
26253;SDS011;53339;51.378;0.094;2023-11-21T07:12:32;7.57;;;3.53;;
26253;SDS011;53339;51.378;0.094;2023-11-21T07:15:01;3.38;;;1.98;;
26253;SDS011;53339;51.378;0.094;2023-11-21T07:17:29;5.75;;;2.35;;
26253;SDS011;53339;51.378;0.094;2023-11-21T07:19:58;2.50;;;1.73;;
26253;SDS011;53339;51.378;0.094;2023-11-21T07:22:27;3.25;;;2.40;;
26253;SDS011;53339;51.378;0.094;2023-11-21T07:24:55;2.17;;;1.88;;
26253;SDS011;53339;51.378;0.094;2023-11-21T07:27:26;4.00;;;2.38;;
26253;SDS011;53339;51.378;0.094;2023-11-21T07:29:53;4.20;;;3.20;;
26253;SDS011;53339;51.378;0.094;2023-11-21T07:32:24;3.17;;;1.60;;
26253;SDS011;53339;51.378;0.094;2023-11-21T07:34:52;2.95;;;2.58;;
26253;SDS011;53339;51.378;0.094;2023-11-21T07:37:20;3.58;;;2.38;;
26253;SDS011;53339;51.378;0.094;2023-11-21T07:39:48;3.53;;;2.20;;
26253;SDS011;53339;51.378;0.094;2023-11-21T07:42:16;2.88;;;1.98;;
26253;SDS011;53339;51.378;0.094;2023-11-21T07:44:45;4.28;;;2.22;;
26253;SDS011;53339;51.378;0.094;2023-11-21T07:47:13;3.67;;;2.40;;
26253;SDS011;53339;51.378;0.094;2023-11-21T07:49:41;4.32;;;2.67;;
26253;SDS011;53339;51.378;0.094;2023-11-21T07:52:11;5.95;;;5.32;;
26253;SDS011;53339;51.378;0.094;2023-11-21T07:54:38;9.88;;;2.25;;
26253;SDS011;53339;51.378;0.094;2023-11-21T07:57:06;3.38;;;2.13;;
26253;SDS011;53339;51.378;0.094;2023-11-21T07:59:34;5.63;;;2.92;;
26253;SDS011;53339;51.378;0.094;2023-11-21T08:02:02;7.43;;;1.67;;
26253;SDS011;53339;51.378;0.094;2023-11-21T08:04:30;4.22;;;2.70;;
26253;SDS011;53339;51.378;0.094;2023-11-21T08:07:01;6.75;;;3.78;;
26253;SDS011;53339;51.378;0.094;2023-11-21T08:09:29;4.35;;;1.77;;
26253;SDS011;53339;51.378;0.094;2023-11-21T08:11:57;4.65;;;2.78;;
26253;SDS011;53339;51.378;0.094;2023-11-21T08:14:24;3.53;;;1.80;;
26253;SDS011;53339;51.378;0.094;2023-11-21T08:16:52;7.80;;;2.83;;
26253;SDS011;53339;51.378;0.094;2023-11-21T08:19:24;4.88;;;2.35;;
26253;SDS011;53339;51.378;0.094;2023-11-21T08:21:52;4.57;;;2.65;;
26253;SDS011;53339;51.378;0.094;2023-11-21T08:24:22;11.82;;;2.80;;
26253;SDS011;53339;51.378;0.094;2023-11-21T08:26:50;7.45;;;1.95;;
26253;SDS011;53339;51.378;0.094;2023-11-21T08:29:19;6.75;;;2.88;;
26253;SDS011;53339;51.378;0.094;2023-11-21T08:31:47;6.60;;;2.60;;
26253;SDS011;53339;51.378;0.094;2023-11-21T08:34:15;4.22;;;2.72;;
26253;SDS011;53339;51.378;0.094;2023-11-21T08:36:43;4.97;;;2.70;;
26253;SDS011;53339;51.378;0.094;2023-11-21T08:39:14;4.68;;;2.20;;
26253;SDS011;53339;51.378;0.094;2023-11-21T08:41:43;8.57;;;3.53;;
26253;SDS011;53339;51.378;0.094;2023-11-21T08:44:11;8.40;;;3.55;;
26253;SDS011;53339;51.378;0.094;2023-11-21T08:46:38;5.32;;;2.65;;
26253;SDS011;53339;51.378;0.094;2023-11-21T08:49:08;8.02;;;3.05;;
26253;SDS011;53339;51.378;0.094;2023-11-21T08:51:36;4.93;;;1.65;;
26253;SDS011;53339;51.378;0.094;2023-11-21T08:54:04;9.93;;;3.78;;
26253;SDS011;53339;51.378;0.094;2023-11-21T08:56:34;8.43;;;3.55;;
26253;SDS011;53339;51.378;0.094;2023-11-21T08:59:02;4.57;;;2.15;;
26253;SDS011;53339;51.378;0.094;2023-11-21T09:01:31;6.85;;;2.53;;
26253;SDS011;53339;51.378;0.094;2023-11-21T09:04:00;4.57;;;2.10;;
26253;SDS011;53339;51.378;0.094;2023-11-21T09:06:28;5.38;;;2.08;;
26253;SDS011;53339;51.378;0.094;2023-11-21T09:08:56;5.00;;;2.53;;
26253;SDS011;53339;51.378;0.094;2023-11-21T09:11:24;4.88;;;2.22;;
26253;SDS011;53339;51.378;0.094;2023-11-21T09:13:52;8.45;;;3.30;;
26253;SDS011;53339;51.378;0.094;2023-11-21T09:16:21;5.47;;;2.88;;
26253;SDS011;53339;51.378;0.094;2023-11-21T09:18:49;2.97;;;1.50;;
26253;SDS011;53339;51.378;0.094;2023-11-21T09:21:16;5.45;;;2.83;;
26253;SDS011;53339;51.378;0.094;2023-11-21T09:23:44;5.20;;;2.40;;
26253;SDS011;53339;51.378;0.094;2023-11-21T09:26:12;5.40;;;3.30;;
26253;SDS011;53339;51.378;0.094;2023-11-21T09:31:14;5.60;;;2.40;;
26253;SDS011;53339;51.378;0.094;2023-11-21T09:33:43;7.05;;;1.75;;
26253;SDS011;53339;51.378;0.094;2023-11-21T09:36:12;5.57;;;2.42;;
26253;SDS011;53339;51.378;0.094;2023-11-21T09:38:43;7.95;;;2.72;;
26253;SDS011;53339;51.378;0.094;2023-11-21T09:41:14;6.00;;;2.40;;
26253;SDS011;53339;51.378;0.094;2023-11-21T09:43:51;5.43;;;2.30;;
26253;SDS011;53339;51.378;0.094;2023-11-21T09:46:24;4.03;;;2.38;;
26253;SDS011;53339;51.378;0.094;2023-11-21T09:48:55;6.68;;;2.63;;
26253;SDS011;53339;51.378;0.094;2023-11-21T09:51:27;11.70;;;2.13;;
26253;SDS011;53339;51.378;0.094;2023-11-21T09:54:00;7.85;;;2.72;;
26253;SDS011;53339;51.378;0.094;2023-11-21T09:56:33;4.35;;;2.90;;
26253;SDS011;53339;51.378;0.094;2023-11-21T09:59:02;4.75;;;2.40;;
26253;SDS011;53339;51.378;0.094;2023-11-21T10:01:35;15.82;;;3.17;;
26253;SDS011;53339;51.378;0.094;2023-11-21T10:04:04;5.70;;;2.83;;
26253;SDS011;53339;51.378;0.094;2023-11-21T10:06:41;4.53;;;1.73;;
26253;SDS011;53339;51.378;0.094;2023-11-21T10:09:10;2.85;;;1.73;;
26253;SDS011;53339;51.378;0.094;2023-11-21T10:11:39;3.90;;;2.20;;
26253;SDS011;53339;51.378;0.094;2023-11-21T10:14:11;4.57;;;1.67;;
26253;SDS011;53339;51.378;0.094;2023-11-21T10:16:41;10.65;;;2.25;;
26253;SDS011;53339;51.378;0.094;2023-11-21T10:19:11;3.50;;;1.85;;
26253;SDS011;53339;51.378;0.094;2023-11-21T10:21:42;4.65;;;1.48;;
26253;SDS011;53339;51.378;0.094;2023-11-21T10:24:10;4.93;;;2.78;;
26253;SDS011;53339;51.378;0.094;2023-11-21T10:26:39;3.72;;;1.98;;
26253;SDS011;53339;51.378;0.094;2023-11-21T10:29:13;5.45;;;3.08;;
26253;SDS011;53339;51.378;0.094;2023-11-21T10:31:43;5.03;;;2.65;;
26253;SDS011;53339;51.378;0.094;2023-11-21T10:36:45;4.18;;;2.35;;
26253;SDS011;53339;51.378;0.094;2023-11-21T10:39:14;3.50;;;2.28;;
26253;SDS011;53339;51.378;0.094;2023-11-21T10:41:47;5.47;;;2.22;;
26253;SDS011;53339;51.378;0.094;2023-11-21T10:44:16;4.63;;;2.10;;
26253;SDS011;53339;51.378;0.094;2023-11-21T10:46:49;4.10;;;2.38;;
26253;SDS011;53339;51.378;0.094;2023-11-21T10:49:18;4.43;;;2.47;;
26253;SDS011;53339;51.378;0.094;2023-11-21T10:51:47;6.28;;;3.20;;
26253;SDS011;53339;51.378;0.094;2023-11-21T10:54:19;6.05;;;2.10;;
26253;SDS011;53339;51.378;0.094;2023-11-21T10:56:57;4.50;;;3.20;;
26253;SDS011;53339;51.378;0.094;2023-11-21T10:59:28;5.57;;;2.30;;
26253;SDS011;53339;51.378;0.094;2023-11-21T11:01:58;3.40;;;1.90;;
26253;SDS011;53339;51.378;0.094;2023-11-21T11:04:28;3.40;;;1.92;;
26253;SDS011;53339;51.378;0.094;2023-11-21T11:07:01;9.23;;;2.63;;
26253;SDS011;53339;51.378;0.094;2023-11-21T11:09:32;4.05;;;2.38;;
26253;SDS011;53339;51.378;0.094;2023-11-21T11:12:04;3.97;;;1.55;;
26253;SDS011;53339;51.378;0.094;2023-11-21T11:14:33;2.88;;;1.90;;
26253;SDS011;53339;51.378;0.094;2023-11-21T11:17:01;3.72;;;1.73;;
26253;SDS011;53339;51.378;0.094;2023-11-21T11:19:31;3.72;;;1.77;;
26253;SDS011;53339;51.378;0.094;2023-11-21T11:24:47;3.83;;;2.22;;
26253;SDS011;53339;51.378;0.094;2023-11-21T11:27:35;2.90;;;2.28;;
26253;SDS011;53339;51.378;0.094;2023-11-21T11:38:51;3.90;;;1.55;;
26253;SDS011;53339;51.378;0.094;2023-11-21T11:41:26;3.53;;;1.92;;
26253;SDS011;53339;51.378;0.094;2023-11-21T11:44:02;4.63;;;1.95;;
26253;SDS011;53339;51.378;0.094;2023-11-21T11:46:42;3.67;;;1.73;;
26253;SDS011;53339;51.378;0.094;2023-11-21T11:49:54;3.78;;;1.77;;
26253;SDS011;53339;51.378;0.094;2023-11-21T11:55:03;2.42;;;1.88;;
26253;SDS011;53339;51.378;0.094;2023-11-21T11:57:31;2.83;;;2.50;;
26253;SDS011;53339;51.378;0.094;2023-11-21T12:02:53;3.13;;;1.90;;
26253;SDS011;53339;51.378;0.094;2023-11-21T12:05:24;3.25;;;2.28;;
26253;SDS011;53339;51.378;0.094;2023-11-21T12:07:55;2.05;;;1.40;;
26253;SDS011;53339;51.378;0.094;2023-11-21T12:10:34;3.42;;;2.15;;
26253;SDS011;53339;51.378;0.094;2023-11-21T12:13:07;3.00;;;1.65;;
26253;SDS011;53339;51.378;0.094;2023-11-21T12:15:37;3.33;;;2.15;;
26253;SDS011;53339;51.378;0.094;2023-11-21T12:18:07;2.78;;;1.50;;
26253;SDS011;53339;51.378;0.094;2023-11-21T12:20:35;3.90;;;2.40;;
26253;SDS011;53339;51.378;0.094;2023-11-21T12:23:06;4.35;;;3.00;;
26253;SDS011;53339;51.378;0.094;2023-11-21T12:25:36;4.57;;;2.00;;
26253;SDS011;53339;51.378;0.094;2023-11-21T12:28:04;4.30;;;2.67;;
26253;SDS011;53339;51.378;0.094;2023-11-21T12:30:35;3.92;;;2.50;;
26253;SDS011;53339;51.378;0.094;2023-11-21T12:33:05;4.22;;;2.20;;
26253;SDS011;53339;51.378;0.094;2023-11-21T12:35:36;4.90;;;3.20;;
26253;SDS011;53339;51.378;0.094;2023-11-21T12:38:05;3.97;;;2.53;;
26253;SDS011;53339;51.378;0.094;2023-11-21T12:40:33;3.78;;;2.40;;
26253;SDS011;53339;51.378;0.094;2023-11-21T12:43:01;4.03;;;1.83;;
26253;SDS011;53339;51.378;0.094;2023-11-21T12:45:31;3.03;;;2.20;;
26253;SDS011;53339;51.378;0.094;2023-11-21T12:47:59;4.32;;;2.38;;
26253;SDS011;53339;51.378;0.094;2023-11-21T12:50:35;2.83;;;1.83;;
26253;SDS011;53339;51.378;0.094;2023-11-21T12:53:07;3.40;;;2.13;;
26253;SDS011;53339;51.378;0.094;2023-11-21T12:55:40;4.88;;;2.03;;
26253;SDS011;53339;51.378;0.094;2023-11-21T12:58:09;3.35;;;2.00;;
26253;SDS011;53339;51.378;0.094;2023-11-21T13:00:39;3.38;;;1.85;;
26253;SDS011;53339;51.378;0.094;2023-11-21T13:03:10;2.90;;;1.65;;
26253;SDS011;53339;51.378;0.094;2023-11-21T13:05:47;4.30;;;2.63;;
26253;SDS011;53339;51.378;0.094;2023-11-21T13:08:19;4.25;;;2.47;;
26253;SDS011;53339;51.378;0.094;2023-11-21T13:10:52;2.92;;;1.67;;
26253;SDS011;53339;51.378;0.094;2023-11-21T13:13:22;2.90;;;2.03;;
26253;SDS011;53339;51.378;0.094;2023-11-21T13:15:53;4.53;;;2.60;;
26253;SDS011;53339;51.378;0.094;2023-11-21T13:18:35;4.47;;;3.22;;
26253;SDS011;53339;51.378;0.094;2023-11-21T13:21:04;3.95;;;1.73;;
26253;SDS011;53339;51.378;0.094;2023-11-21T13:23:43;2.80;;;1.50;;
26253;SDS011;53339;51.378;0.094;2023-11-21T13:26:13;3.67;;;1.98;;
26253;SDS011;53339;51.378;0.094;2023-11-21T13:28:42;3.65;;;2.33;;
26253;SDS011;53339;51.378;0.094;2023-11-21T13:31:14;3.17;;;1.73;;
26253;SDS011;53339;51.378;0.094;2023-11-21T13:33:58;4.43;;;2.58;;
26253;SDS011;53339;51.378;0.094;2023-11-21T13:36:32;4.40;;;2.75;;
26253;SDS011;53339;51.378;0.094;2023-11-21T13:39:02;3.40;;;2.13;;
26253;SDS011;53339;51.378;0.094;2023-11-21T13:41:35;4.47;;;2.50;;
26253;SDS011;53339;51.378;0.094;2023-11-21T13:44:05;3.75;;;1.92;;
26253;SDS011;53339;51.378;0.094;2023-11-21T13:46:51;5.05;;;2.75;;
26253;SDS011;53339;51.378;0.094;2023-11-21T13:49:19;4.18;;;2.03;;
26253;SDS011;53339;51.378;0.094;2023-11-21T13:51:48;2.40;;;1.75;;
26253;SDS011;53339;51.378;0.094;2023-11-21T13:54:20;2.95;;;1.55;;
26253;SDS011;53339;51.378;0.094;2023-11-21T13:56:51;2.05;;;1.52;;
26253;SDS011;53339;51.378;0.094;2023-11-21T13:59:18;2.05;;;1.77;;
26253;SDS011;53339;51.378;0.094;2023-11-21T14:01:52;2.80;;;2.50;;
26253;SDS011;53339;51.378;0.094;2023-11-21T14:04:21;2.00;;;1.67;;
26253;SDS011;53339;51.378;0.094;2023-11-21T14:06:58;2.10;;;1.02;;
26253;SDS011;53339;51.378;0.094;2023-11-21T14:12:10;2.58;;;1.65;;
26253;SDS011;53339;51.378;0.094;2023-11-21T14:14:41;2.53;;;1.48;;
26253;SDS011;53339;51.378;0.094;2023-11-21T14:17:10;2.63;;;1.40;;
26253;SDS011;53339;51.378;0.094;2023-11-21T14:19:38;1.98;;;1.83;;
26253;SDS011;53339;51.378;0.094;2023-11-21T14:22:10;3.90;;;1.60;;
26253;SDS011;53339;51.378;0.094;2023-11-21T14:24:38;3.38;;;1.58;;
26253;SDS011;53339;51.378;0.094;2023-11-21T14:27:13;2.00;;;1.23;;
26253;SDS011;53339;51.378;0.094;2023-11-21T14:29:42;4.07;;;1.85;;
26253;SDS011;53339;51.378;0.094;2023-11-21T14:32:12;6.13;;;2.13;;
26253;SDS011;53339;51.378;0.094;2023-11-21T14:34:41;3.40;;;1.63;;
26253;SDS011;53339;51.378;0.094;2023-11-21T14:37:13;2.50;;;1.48;;
26253;SDS011;53339;51.378;0.094;2023-11-21T14:39:41;3.53;;;2.28;;
26253;SDS011;53339;51.378;0.094;2023-11-21T14:42:13;6.28;;;1.52;;
26253;SDS011;53339;51.378;0.094;2023-11-21T14:44:42;1.58;;;1.00;;
26253;SDS011;53339;51.378;0.094;2023-11-21T14:47:14;3.28;;;2.33;;
26253;SDS011;53339;51.378;0.094;2023-11-21T14:49:44;3.05;;;1.50;;
26253;SDS011;53339;51.378;0.094;2023-11-21T14:52:23;4.28;;;2.30;;
26253;SDS011;53339;51.378;0.094;2023-11-21T14:55:02;5.32;;;1.58;;
26253;SDS011;53339;51.378;0.094;2023-11-21T14:57:49;8.00;;;2.42;;
26253;SDS011;53339;51.378;0.094;2023-11-21T15:00:18;5.35;;;2.13;;
26253;SDS011;53339;51.378;0.094;2023-11-21T15:03:19;3.70;;;1.92;;
26253;SDS011;53339;51.378;0.094;2023-11-21T15:06:12;2.70;;;1.48;;
26253;SDS011;53339;51.378;0.094;2023-11-21T15:08:50;4.45;;;2.08;;
26253;SDS011;53339;51.378;0.094;2023-11-21T15:11:34;4.60;;;2.10;;
26253;SDS011;53339;51.378;0.094;2023-11-21T15:16:36;4.70;;;2.15;;
26253;SDS011;53339;51.378;0.094;2023-11-21T15:19:07;2.83;;;1.67;;
26253;SDS011;53339;51.378;0.094;2023-11-21T15:21:36;4.75;;;1.65;;
26253;SDS011;53339;51.378;0.094;2023-11-21T15:24:04;3.65;;;1.33;;
26253;SDS011;53339;51.378;0.094;2023-11-21T15:26:33;4.93;;;2.28;;
26253;SDS011;53339;51.378;0.094;2023-11-21T15:29:01;6.53;;;1.73;;
26253;SDS011;53339;51.378;0.094;2023-11-21T15:31:29;6.15;;;1.75;;